sensor_id;sensor_type;location;lat;lon;timestamp;temperature;humidity
9323;DHT22;4700;48.822;9.270;2022-10-16T00:02:25;16.80;1.00
9323;DHT22;4700;48.822;9.270;2022-10-16T00:05:11;16.90;1.00
9323;DHT22;4700;48.822;9.270;2022-10-16T00:07:58;16.90;1.00
9323;DHT22;4700;48.822;9.270;2022-10-16T00:10:44;17.00;1.00
9323;DHT22;4700;48.822;9.270;2022-10-16T00:13:29;17.00;1.00
9323;DHT22;4700;48.822;9.270;2022-10-16T00:16:16;16.90;1.00
9323;DHT22;4700;48.822;9.270;2022-10-16T00:19:03;16.90;1.00
9323;DHT22;4700;48.822;9.270;2022-10-16T00:21:49;16.90;1.00
9323;DHT22;4700;48.822;9.270;2022-10-16T00:24:36;16.80;1.00
9323;DHT22;4700;48.822;9.270;2022-10-16T00:27:22;16.80;1.00
9323;DHT22;4700;48.822;9.270;2022-10-16T00:30:08;16.70;1.00
9323;DHT22;4700;48.822;9.270;2022-10-16T00:32:54;16.60;1.00
9323;DHT22;4700;48.822;9.270;2022-10-16T00:35:40;16.60;1.00
9323;DHT22;4700;48.822;9.270;2022-10-16T00:38:26;16.50;1.00
9323;DHT22;4700;48.822;9.270;2022-10-16T00:41:16;16.40;1.00
9323;DHT22;4700;48.822;9.270;2022-10-16T00:44:03;16.30;1.00
9323;DHT22;4700;48.822;9.270;2022-10-16T00:46:50;16.30;1.00
9323;DHT22;4700;48.822;9.270;2022-10-16T00:49:36;16.20;1.00
9323;DHT22;4700;48.822;9.270;2022-10-16T00:52:22;16.20;1.00
9323;DHT22;4700;48.822;9.270;2022-10-16T00:55:11;16.20;1.00
9323;DHT22;4700;48.822;9.270;2022-10-16T00:57:58;16.10;1.00
9323;DHT22;4700;48.822;9.270;2022-10-16T01:00:44;16.10;1.00
9323;DHT22;4700;48.822;9.270;2022-10-16T01:03:31;16.10;1.00
9323;DHT22;4700;48.822;9.270;2022-10-16T01:06:31;16.10;1.00
9323;DHT22;4700;48.822;9.270;2022-10-16T01:09:25;16.10;1.00
9323;DHT22;4700;48.822;9.270;2022-10-16T01:12:15;16.10;1.00
9323;DHT22;4700;48.822;9.270;2022-10-16T01:15:10;16.20;1.00
9323;DHT22;4700;48.822;9.270;2022-10-16T01:18:00;16.30;1.00
9323;DHT22;4700;48.822;9.270;2022-10-16T01:20:52;16.30;1.00
9323;DHT22;4700;48.822;9.270;2022-10-16T01:23:50;16.30;1.00
9323;DHT22;4700;48.822;9.270;2022-10-16T01:26:48;16.40;1.00
9323;DHT22;4700;48.822;9.270;2022-10-16T01:29:39;16.40;1.00
9323;DHT22;4700;48.822;9.270;2022-10-16T01:32:31;16.40;1.00
9323;DHT22;4700;48.822;9.270;2022-10-16T01:35:22;16.40;1.00
9323;DHT22;4700;48.822;9.270;2022-10-16T01:38:14;16.40;1.00
9323;DHT22;4700;48.822;9.270;2022-10-16T01:41:03;16.40;1.00
9323;DHT22;4700;48.822;9.270;2022-10-16T01:43:55;16.40;1.00
9323;DHT22;4700;48.822;9.270;2022-10-16T01:46:46;16.40;1.00
9323;DHT22;4700;48.822;9.270;2022-10-16T01:49:35;16.40;1.00
9323;DHT22;4700;48.822;9.270;2022-10-16T01:52:24;16.40;1.00
9323;DHT22;4700;48.822;9.270;2022-10-16T01:55:14;16.40;1.00
9323;DHT22;4700;48.822;9.270;2022-10-16T01:58:01;16.40;1.00
9323;DHT22;4700;48.822;9.270;2022-10-16T02:00:48;16.40;1.00
9323;DHT22;4700;48.822;9.270;2022-10-16T02:03:37;16.40;1.00
9323;DHT22;4700;48.822;9.270;2022-10-16T02:06:26;16.20;1.00
9323;DHT22;4700;48.822;9.270;2022-10-16T02:09:11;16.20;1.00
9323;DHT22;4700;48.822;9.270;2022-10-16T02:12:03;16.10;1.00
9323;DHT22;4700;48.822;9.270;2022-10-16T02:14:50;16.00;1.00
9323;DHT22;4700;48.822;9.270;2022-10-16T02:17:37;16.00;1.00
9323;DHT22;4700;48.822;9.270;2022-10-16T02:20:28;15.90;1.00
9323;DHT22;4700;48.822;9.270;2022-10-16T02:23:19;15.90;1.00
9323;DHT22;4700;48.822;9.270;2022-10-16T02:26:13;15.80;1.00
9323;DHT22;4700;48.822;9.270;2022-10-16T02:29:03;15.80;1.00
9323;DHT22;4700;48.822;9.270;2022-10-16T02:31:55;15.80;1.00
9323;DHT22;4700;48.822;9.270;2022-10-16T02:34:44;15.90;1.00
9323;DHT22;4700;48.822;9.270;2022-10-16T02:37:32;15.90;1.00
9323;DHT22;4700;48.822;9.270;2022-10-16T02:40:19;15.90;1.00
9323;DHT22;4700;48.822;9.270;2022-10-16T02:43:05;15.90;1.00
9323;DHT22;4700;48.822;9.270;2022-10-16T02:45:51;15.90;1.00
9323;DHT22;4700;48.822;9.270;2022-10-16T02:48:37;15.90;1.00
9323;DHT22;4700;48.822;9.270;2022-10-16T02:51:23;15.90;1.00
9323;DHT22;4700;48.822;9.270;2022-10-16T02:54:11;15.90;1.00
9323;DHT22;4700;48.822;9.270;2022-10-16T02:56:57;15.80;1.00
9323;DHT22;4700;48.822;9.270;2022-10-16T02:59:43;15.80;1.00
9323;DHT22;4700;48.822;9.270;2022-10-16T03:02:28;15.70;1.00
9323;DHT22;4700;48.822;9.270;2022-10-16T03:05:15;15.70;1.00
9323;DHT22;4700;48.822;9.270;2022-10-16T03:08:00;15.70;1.00
9323;DHT22;4700;48.822;9.270;2022-10-16T03:10:48;15.70;1.00
9323;DHT22;4700;48.822;9.270;2022-10-16T03:13:33;15.60;1.00
9323;DHT22;4700;48.822;9.270;2022-10-16T03:16:19;15.60;1.00
9323;DHT22;4700;48.822;9.270;2022-10-16T03:19:05;15.50;1.00
9323;DHT22;4700;48.822;9.270;2022-10-16T03:21:51;15.50;1.00
9323;DHT22;4700;48.822;9.270;2022-10-16T03:24:36;15.40;1.00
9323;DHT22;4700;48.822;9.270;2022-10-16T03:27:24;15.40;1.00
9323;DHT22;4700;48.822;9.270;2022-10-16T03:30:10;15.40;1.00
9323;DHT22;4700;48.822;9.270;2022-10-16T03:32:56;15.30;1.00
9323;DHT22;4700;48.822;9.270;2022-10-16T03:35:41;15.40;1.00
9323;DHT22;4700;48.822;9.270;2022-10-16T03:38:27;15.30;1.00
9323;DHT22;4700;48.822;9.270;2022-10-16T03:41:13;15.30;1.00
9323;DHT22;4700;48.822;9.270;2022-10-16T03:44:00;15.20;1.00
9323;DHT22;4700;48.822;9.270;2022-10-16T03:46:45;15.20;1.00
9323;DHT22;4700;48.822;9.270;2022-10-16T03:49:31;15.20;1.00
9323;DHT22;4700;48.822;9.270;2022-10-16T03:52:17;15.10;1.00
9323;DHT22;4700;48.822;9.270;2022-10-16T03:55:03;15.10;1.00
9323;DHT22;4700;48.822;9.270;2022-10-16T03:57:49;15.00;1.00
9323;DHT22;4700;48.822;9.270;2022-10-16T04:00:39;15.00;1.00
9323;DHT22;4700;48.822;9.270;2022-10-16T04:03:24;15.00;1.00
9323;DHT22;4700;48.822;9.270;2022-10-16T04:06:10;15.00;1.00
9323;DHT22;4700;48.822;9.270;2022-10-16T04:08:56;14.90;1.00
9323;DHT22;4700;48.822;9.270;2022-10-16T04:11:42;14.90;1.00
9323;DHT22;4700;48.822;9.270;2022-10-16T04:14:27;14.80;1.00
9323;DHT22;4700;48.822;9.270;2022-10-16T04:17:14;14.80;1.00
9323;DHT22;4700;48.822;9.270;2022-10-16T04:20:00;14.80;1.00
9323;DHT22;4700;48.822;9.270;2022-10-16T04:22:46;14.90;1.00
9323;DHT22;4700;48.822;9.270;2022-10-16T04:25:32;14.80;1.00
9323;DHT22;4700;48.822;9.270;2022-10-16T04:28:18;14.90;1.00
9323;DHT22;4700;48.822;9.270;2022-10-16T04:31:04;14.80;1.00
9323;DHT22;4700;48.822;9.270;2022-10-16T04:33:51;14.80;1.00
9323;DHT22;4700;48.822;9.270;2022-10-16T04:36:37;14.80;1.00
9323;DHT22;4700;48.822;9.270;2022-10-16T04:39:22;14.70;1.00
9323;DHT22;4700;48.822;9.270;2022-10-16T04:42:08;14.70;1.00
9323;DHT22;4700;48.822;9.270;2022-10-16T04:44:54;14.70;1.00
9323;DHT22;4700;48.822;9.270;2022-10-16T04:47:40;14.70;1.00
9323;DHT22;4700;48.822;9.270;2022-10-16T04:50:27;14.80;1.00
9323;DHT22;4700;48.822;9.270;2022-10-16T04:53:13;14.80;1.00
9323;DHT22;4700;48.822;9.270;2022-10-16T04:55:58;14.70;1.00
9323;DHT22;4700;48.822;9.270;2022-10-16T04:58:44;14.70;1.00
9323;DHT22;4700;48.822;9.270;2022-10-16T05:01:30;14.70;1.00
9323;DHT22;4700;48.822;9.270;2022-10-16T05:04:16;14.70;1.00
9323;DHT22;4700;48.822;9.270;2022-10-16T05:07:03;14.60;1.00
9323;DHT22;4700;48.822;9.270;2022-10-16T05:09:48;14.60;1.00
9323;DHT22;4700;48.822;9.270;2022-10-16T05:12:34;14.60;1.00
9323;DHT22;4700;48.822;9.270;2022-10-16T05:15:20;14.60;1.00
9323;DHT22;4700;48.822;9.270;2022-10-16T05:18:06;14.60;1.00
9323;DHT22;4700;48.822;9.270;2022-10-16T05:20:51;14.60;1.00
9323;DHT22;4700;48.822;9.270;2022-10-16T05:23:39;14.60;1.00
9323;DHT22;4700;48.822;9.270;2022-10-16T05:26:24;14.60;1.00
9323;DHT22;4700;48.822;9.270;2022-10-16T05:29:10;14.50;1.00
9323;DHT22;4700;48.822;9.270;2022-10-16T05:31:56;14.50;1.00
9323;DHT22;4700;48.822;9.270;2022-10-16T05:34:42;14.50;1.00
9323;DHT22;4700;48.822;9.270;2022-10-16T05:37:27;14.50;1.00
9323;DHT22;4700;48.822;9.270;2022-10-16T05:40:16;14.40;1.00
9323;DHT22;4700;48.822;9.270;2022-10-16T05:43:02;14.40;1.00
9323;DHT22;4700;48.822;9.270;2022-10-16T05:45:54;14.40;1.00
9323;DHT22;4700;48.822;9.270;2022-10-16T05:48:40;14.30;1.00
9323;DHT22;4700;48.822;9.270;2022-10-16T05:51:26;14.30;1.00
9323;DHT22;4700;48.822;9.270;2022-10-16T05:54:12;14.30;1.00
9323;DHT22;4700;48.822;9.270;2022-10-16T05:56:59;14.30;1.00
9323;DHT22;4700;48.822;9.270;2022-10-16T05:59:44;14.30;1.00
9323;DHT22;4700;48.822;9.270;2022-10-16T06:02:30;14.30;1.00
9323;DHT22;4700;48.822;9.270;2022-10-16T06:05:16;14.30;1.00
9323;DHT22;4700;48.822;9.270;2022-10-16T06:08:02;14.40;1.00
9323;DHT22;4700;48.822;9.270;2022-10-16T06:10:48;14.50;1.00
9323;DHT22;4700;48.822;9.270;2022-10-16T06:13:35;14.50;1.00
9323;DHT22;4700;48.822;9.270;2022-10-16T06:16:22;14.50;1.00
9323;DHT22;4700;48.822;9.270;2022-10-16T06:19:07;14.50;1.00
9323;DHT22;4700;48.822;9.270;2022-10-16T06:21:55;14.40;1.00
9323;DHT22;4700;48.822;9.270;2022-10-16T06:24:42;14.30;1.00
9323;DHT22;4700;48.822;9.270;2022-10-16T06:27:28;14.30;1.00
9323;DHT22;4700;48.822;9.270;2022-10-16T06:30:15;14.30;1.00
9323;DHT22;4700;48.822;9.270;2022-10-16T06:33:01;14.40;1.00
9323;DHT22;4700;48.822;9.270;2022-10-16T06:35:47;14.40;1.00
9323;DHT22;4700;48.822;9.270;2022-10-16T06:38:33;14.40;1.00
9323;DHT22;4700;48.822;9.270;2022-10-16T06:41:20;14.40;1.00
9323;DHT22;4700;48.822;9.270;2022-10-16T06:44:07;14.50;1.00
9323;DHT22;4700;48.822;9.270;2022-10-16T06:46:57;14.50;1.00
9323;DHT22;4700;48.822;9.270;2022-10-16T06:49:43;14.60;1.00
9323;DHT22;4700;48.822;9.270;2022-10-16T06:52:28;14.70;1.00
9323;DHT22;4700;48.822;9.270;2022-10-16T06:55:14;14.70;1.00
9323;DHT22;4700;48.822;9.270;2022-10-16T06:58:01;14.90;1.00
9323;DHT22;4700;48.822;9.270;2022-10-16T07:00:46;14.90;1.00
9323;DHT22;4700;48.822;9.270;2022-10-16T07:03:36;15.00;1.00
9323;DHT22;4700;48.822;9.270;2022-10-16T07:06:24;15.00;1.00
9323;DHT22;4700;48.822;9.270;2022-10-16T07:09:10;15.10;1.00
9323;DHT22;4700;48.822;9.270;2022-10-16T07:11:56;15.10;1.00
9323;DHT22;4700;48.822;9.270;2022-10-16T07:14:42;15.20;1.00
9323;DHT22;4700;48.822;9.270;2022-10-16T07:17:27;15.30;1.00
9323;DHT22;4700;48.822;9.270;2022-10-16T07:20:15;15.30;1.00
9323;DHT22;4700;48.822;9.270;2022-10-16T07:23:01;15.50;1.00
9323;DHT22;4700;48.822;9.270;2022-10-16T07:25:53;15.60;1.00
9323;DHT22;4700;48.822;9.270;2022-10-16T07:28:40;15.70;1.00
9323;DHT22;4700;48.822;9.270;2022-10-16T07:31:28;15.80;1.00
9323;DHT22;4700;48.822;9.270;2022-10-16T07:34:14;15.80;1.00
9323;DHT22;4700;48.822;9.270;2022-10-16T07:37:02;15.70;1.00
9323;DHT22;4700;48.822;9.270;2022-10-16T07:39:47;15.70;1.00
9323;DHT22;4700;48.822;9.270;2022-10-16T07:42:33;15.70;1.00
9323;DHT22;4700;48.822;9.270;2022-10-16T07:45:19;15.80;1.00
9323;DHT22;4700;48.822;9.270;2022-10-16T07:48:05;15.90;1.00
9323;DHT22;4700;48.822;9.270;2022-10-16T07:50:51;15.90;1.00
9323;DHT22;4700;48.822;9.270;2022-10-16T07:53:39;15.90;1.00
9323;DHT22;4700;48.822;9.270;2022-10-16T07:56:24;15.90;1.00
9323;DHT22;4700;48.822;9.270;2022-10-16T07:59:10;15.90;1.00
9323;DHT22;4700;48.822;9.270;2022-10-16T08:01:56;16.00;1.00
9323;DHT22;4700;48.822;9.270;2022-10-16T08:04:42;16.10;1.00
9323;DHT22;4700;48.822;9.270;2022-10-16T08:07:28;16.10;1.00
9323;DHT22;4700;48.822;9.270;2022-10-16T08:10:17;16.20;1.00
9323;DHT22;4700;48.822;9.270;2022-10-16T08:13:03;16.20;1.00
9323;DHT22;4700;48.822;9.270;2022-10-16T08:15:48;16.30;1.00
9323;DHT22;4700;48.822;9.270;2022-10-16T08:18:34;16.40;1.00
9323;DHT22;4700;48.822;9.270;2022-10-16T08:21:22;16.60;1.00
9323;DHT22;4700;48.822;9.270;2022-10-16T08:24:08;16.70;1.00
9323;DHT22;4700;48.822;9.270;2022-10-16T08:26:55;16.90;1.00
9323;DHT22;4700;48.822;9.270;2022-10-16T08:29:41;17.30;1.00
9323;DHT22;4700;48.822;9.270;2022-10-16T08:32:27;17.80;1.00
9323;DHT22;4700;48.822;9.270;2022-10-16T08:35:13;19.00;1.00
9323;DHT22;4700;48.822;9.270;2022-10-16T08:37:59;20.60;1.00
9323;DHT22;4700;48.822;9.270;2022-10-16T08:40:45;22.00;1.00
9323;DHT22;4700;48.822;9.270;2022-10-16T08:43:42;22.60;1.00
9323;DHT22;4700;48.822;9.270;2022-10-16T08:46:37;22.60;1.00
9323;DHT22;4700;48.822;9.270;2022-10-16T08:49:25;22.70;1.00
9323;DHT22;4700;48.822;9.270;2022-10-16T08:52:12;22.30;1.00
9323;DHT22;4700;48.822;9.270;2022-10-16T08:54:59;21.80;1.00
9323;DHT22;4700;48.822;9.270;2022-10-16T08:57:44;21.70;1.00
9323;DHT22;4700;48.822;9.270;2022-10-16T09:00:32;21.10;1.00
9323;DHT22;4700;48.822;9.270;2022-10-16T09:03:28;21.30;1.00
9323;DHT22;4700;48.822;9.270;2022-10-16T09:06:29;21.50;1.00
9323;DHT22;4700;48.822;9.270;2022-10-16T09:09:35;21.60;1.00
9323;DHT22;4700;48.822;9.270;2022-10-16T09:12:30;21.70;1.00
9323;DHT22;4700;48.822;9.270;2022-10-16T09:15:25;21.80;1.00
9323;DHT22;4700;48.822;9.270;2022-10-16T09:18:23;22.20;1.00
9323;DHT22;4700;48.822;9.270;2022-10-16T09:21:16;22.30;1.00
9323;DHT22;4700;48.822;9.270;2022-10-16T09:24:10;22.20;1.00
9323;DHT22;4700;48.822;9.270;2022-10-16T09:26:57;22.20;1.00
9323;DHT22;4700;48.822;9.270;2022-10-16T09:29:43;22.50;1.00
9323;DHT22;4700;48.822;9.270;2022-10-16T09:32:29;23.00;1.00
9323;DHT22;4700;48.822;9.270;2022-10-16T09:35:20;23.30;1.00
9323;DHT22;4700;48.822;9.270;2022-10-16T09:38:07;23.40;1.00
9323;DHT22;4700;48.822;9.270;2022-10-16T09:40:54;23.20;1.00
9323;DHT22;4700;48.822;9.270;2022-10-16T09:43:47;23.00;1.00
9323;DHT22;4700;48.822;9.270;2022-10-16T09:46:34;22.80;1.00
9323;DHT22;4700;48.822;9.270;2022-10-16T09:49:23;22.40;1.00
9323;DHT22;4700;48.822;9.270;2022-10-16T09:52:14;22.10;1.00
9323;DHT22;4700;48.822;9.270;2022-10-16T09:55:12;21.90;1.00
9323;DHT22;4700;48.822;9.270;2022-10-16T09:58:01;21.80;1.00
9323;DHT22;4700;48.822;9.270;2022-10-16T10:00:50;21.90;1.00
9323;DHT22;4700;48.822;9.270;2022-10-16T10:03:38;22.10;1.00
9323;DHT22;4700;48.822;9.270;2022-10-16T10:06:27;22.10;1.00
9323;DHT22;4700;48.822;9.270;2022-10-16T10:09:20;22.10;1.00
9323;DHT22;4700;48.822;9.270;2022-10-16T10:12:17;22.10;1.00
9323;DHT22;4700;48.822;9.270;2022-10-16T10:15:06;22.10;1.00
9323;DHT22;4700;48.822;9.270;2022-10-16T10:17:53;22.00;1.00
9323;DHT22;4700;48.822;9.270;2022-10-16T10:20:39;22.30;1.00
9323;DHT22;4700;48.822;9.270;2022-10-16T10:23:26;22.70;1.00
9323;DHT22;4700;48.822;9.270;2022-10-16T10:26:18;23.00;1.00
9323;DHT22;4700;48.822;9.270;2022-10-16T10:29:10;23.10;1.00
9323;DHT22;4700;48.822;9.270;2022-10-16T10:32:06;23.20;1.00
9323;DHT22;4700;48.822;9.270;2022-10-16T10:35:07;23.10;1.00
9323;DHT22;4700;48.822;9.270;2022-10-16T10:38:13;22.80;1.00
9323;DHT22;4700;48.822;9.270;2022-10-16T10:41:13;22.70;1.00
9323;DHT22;4700;48.822;9.270;2022-10-16T10:44:08;22.80;1.00
9323;DHT22;4700;48.822;9.270;2022-10-16T10:46:57;22.90;1.00
9323;DHT22;4700;48.822;9.270;2022-10-16T10:49:57;23.20;1.00
9323;DHT22;4700;48.822;9.270;2022-10-16T10:52:58;23.60;1.00
9323;DHT22;4700;48.822;9.270;2022-10-16T10:55:51;24.10;1.00
9323;DHT22;4700;48.822;9.270;2022-10-16T10:59:04;24.30;1.00
9323;DHT22;4700;48.822;9.270;2022-10-16T11:01:55;24.50;1.00
9323;DHT22;4700;48.822;9.270;2022-10-16T11:04:58;24.30;1.00
9323;DHT22;4700;48.822;9.270;2022-10-16T11:07:51;23.90;1.00
9323;DHT22;4700;48.822;9.270;2022-10-16T11:10:44;23.50;1.00
9323;DHT22;4700;48.822;9.270;2022-10-16T11:13:35;23.20;1.00
9323;DHT22;4700;48.822;9.270;2022-10-16T11:16:28;23.00;1.00
9323;DHT22;4700;48.822;9.270;2022-10-16T11:19:24;22.80;1.00
9323;DHT22;4700;48.822;9.270;2022-10-16T11:22:17;22.40;1.00
9323;DHT22;4700;48.822;9.270;2022-10-16T11:25:13;22.30;1.00
9323;DHT22;4700;48.822;9.270;2022-10-16T11:28:03;22.30;1.00
9323;DHT22;4700;48.822;9.270;2022-10-16T11:30:54;22.20;1.00
9323;DHT22;4700;48.822;9.270;2022-10-16T11:33:45;22.30;1.00
9323;DHT22;4700;48.822;9.270;2022-10-16T11:36:36;22.20;1.00
9323;DHT22;4700;48.822;9.270;2022-10-16T11:39:25;22.20;1.00
9323;DHT22;4700;48.822;9.270;2022-10-16T11:42:19;22.30;1.00
9323;DHT22;4700;48.822;9.270;2022-10-16T11:45:19;22.40;1.00
9323;DHT22;4700;48.822;9.270;2022-10-16T11:48:17;22.40;1.00
9323;DHT22;4700;48.822;9.270;2022-10-16T11:51:11;22.50;1.00
9323;DHT22;4700;48.822;9.270;2022-10-16T11:54:03;22.60;1.00
9323;DHT22;4700;48.822;9.270;2022-10-16T11:56:53;22.70;1.00
9323;DHT22;4700;48.822;9.270;2022-10-16T11:59:43;22.70;1.00
9323;DHT22;4700;48.822;9.270;2022-10-16T12:02:40;22.70;1.00
9323;DHT22;4700;48.822;9.270;2022-10-16T12:05:35;22.70;1.00
9323;DHT22;4700;48.822;9.270;2022-10-16T12:08:29;22.80;1.00
9323;DHT22;4700;48.822;9.270;2022-10-16T12:11:30;22.80;1.00
9323;DHT22;4700;48.822;9.270;2022-10-16T12:14:32;22.90;1.00
9323;DHT22;4700;48.822;9.270;2022-10-16T12:17:25;23.10;1.00
9323;DHT22;4700;48.822;9.270;2022-10-16T12:20:27;23.20;1.00
9323;DHT22;4700;48.822;9.270;2022-10-16T12:23:20;23.30;1.00
9323;DHT22;4700;48.822;9.270;2022-10-16T12:26:10;23.30;1.00
9323;DHT22;4700;48.822;9.270;2022-10-16T12:29:12;23.30;1.00
9323;DHT22;4700;48.822;9.270;2022-10-16T12:31:58;23.30;1.00
9323;DHT22;4700;48.822;9.270;2022-10-16T12:34:45;23.20;1.00
9323;DHT22;4700;48.822;9.270;2022-10-16T12:37:34;23.20;1.00
9323;DHT22;4700;48.822;9.270;2022-10-16T12:40:27;23.30;1.00
9323;DHT22;4700;48.822;9.270;2022-10-16T12:43:36;23.40;1.00
9323;DHT22;4700;48.822;9.270;2022-10-16T12:46:37;23.70;1.00
9323;DHT22;4700;48.822;9.270;2022-10-16T12:49:31;23.80;1.00
9323;DHT22;4700;48.822;9.270;2022-10-16T12:52:27;23.80;1.00
9323;DHT22;4700;48.822;9.270;2022-10-16T12:55:16;23.80;1.00
9323;DHT22;4700;48.822;9.270;2022-10-16T12:58:18;23.70;1.00
9323;DHT22;4700;48.822;9.270;2022-10-16T13:04:01;23.70;1.00
9323;DHT22;4700;48.822;9.270;2022-10-16T13:06:55;23.60;1.00
9323;DHT22;4700;48.822;9.270;2022-10-16T13:09:51;23.60;1.00
9323;DHT22;4700;48.822;9.270;2022-10-16T13:13:00;23.60;1.00
9323;DHT22;4700;48.822;9.270;2022-10-16T13:15:57;23.40;1.00
9323;DHT22;4700;48.822;9.270;2022-10-16T13:18:55;23.40;1.00
9323;DHT22;4700;48.822;9.270;2022-10-16T13:21:48;23.30;1.00
9323;DHT22;4700;48.822;9.270;2022-10-16T13:24:51;23.60;1.00
9323;DHT22;4700;48.822;9.270;2022-10-16T13:27:45;23.70;1.00
9323;DHT22;4700;48.822;9.270;2022-10-16T13:30:36;23.90;1.00
9323;DHT22;4700;48.822;9.270;2022-10-16T13:33:30;23.80;1.00
9323;DHT22;4700;48.822;9.270;2022-10-16T13:36:23;23.80;1.00
9323;DHT22;4700;48.822;9.270;2022-10-16T13:39:14;23.90;1.00
9323;DHT22;4700;48.822;9.270;2022-10-16T13:42:04;24.00;1.00
9323;DHT22;4700;48.822;9.270;2022-10-16T13:44:52;24.10;1.00
9323;DHT22;4700;48.822;9.270;2022-10-16T13:47:38;23.80;1.00
9323;DHT22;4700;48.822;9.270;2022-10-16T13:50:24;23.90;1.00
9323;DHT22;4700;48.822;9.270;2022-10-16T13:53:13;24.10;1.00
9323;DHT22;4700;48.822;9.270;2022-10-16T13:55:59;24.00;1.00
9323;DHT22;4700;48.822;9.270;2022-10-16T13:58:45;23.70;1.00
9323;DHT22;4700;48.822;9.270;2022-10-16T14:04:04;23.70;1.00
9323;DHT22;4700;48.822;9.270;2022-10-16T14:06:51;23.60;1.00
9323;DHT22;4700;48.822;9.270;2022-10-16T14:09:38;23.40;1.00
9323;DHT22;4700;48.822;9.270;2022-10-16T14:12:24;23.30;1.00
9323;DHT22;4700;48.822;9.270;2022-10-16T14:15:17;23.20;1.00
9323;DHT22;4700;48.822;9.270;2022-10-16T14:18:04;23.00;1.00
9323;DHT22;4700;48.822;9.270;2022-10-16T14:20:50;22.90;1.00
9323;DHT22;4700;48.822;9.270;2022-10-16T14:23:37;22.80;1.00
9323;DHT22;4700;48.822;9.270;2022-10-16T14:26:27;22.70;1.00
9323;DHT22;4700;48.822;9.270;2022-10-16T14:29:17;22.60;1.00
9323;DHT22;4700;48.822;9.270;2022-10-16T14:32:05;22.70;1.00
9323;DHT22;4700;48.822;9.270;2022-10-16T14:34:53;22.80;1.00
9323;DHT22;4700;48.822;9.270;2022-10-16T14:37:40;22.70;1.00
9323;DHT22;4700;48.822;9.270;2022-10-16T14:40:28;22.70;1.00
9323;DHT22;4700;48.822;9.270;2022-10-16T14:43:21;22.80;1.00
9323;DHT22;4700;48.822;9.270;2022-10-16T14:46:12;23.00;1.00
9323;DHT22;4700;48.822;9.270;2022-10-16T14:49:02;23.20;1.00
9323;DHT22;4700;48.822;9.270;2022-10-16T14:51:48;23.20;1.00
9323;DHT22;4700;48.822;9.270;2022-10-16T14:54:34;23.30;1.00
9323;DHT22;4700;48.822;9.270;2022-10-16T14:57:22;23.20;1.00
9323;DHT22;4700;48.822;9.270;2022-10-16T15:00:16;23.30;1.00
9323;DHT22;4700;48.822;9.270;2022-10-16T15:03:05;23.30;1.00
9323;DHT22;4700;48.822;9.270;2022-10-16T15:05:50;23.30;1.00
9323;DHT22;4700;48.822;9.270;2022-10-16T15:08:36;23.10;1.00
9323;DHT22;4700;48.822;9.270;2022-10-16T15:11:25;23.00;1.00
9323;DHT22;4700;48.822;9.270;2022-10-16T15:14:11;22.90;1.00
9323;DHT22;4700;48.822;9.270;2022-10-16T15:16:58;22.80;1.00
9323;DHT22;4700;48.822;9.270;2022-10-16T15:19:44;22.60;1.00
9323;DHT22;4700;48.822;9.270;2022-10-16T15:22:40;22.50;1.00
9323;DHT22;4700;48.822;9.270;2022-10-16T15:25:33;22.50;1.00
9323;DHT22;4700;48.822;9.270;2022-10-16T15:28:21;22.60;1.00
9323;DHT22;4700;48.822;9.270;2022-10-16T15:31:07;22.60;1.00
9323;DHT22;4700;48.822;9.270;2022-10-16T15:33:55;22.50;1.00
9323;DHT22;4700;48.822;9.270;2022-10-16T15:36:46;22.30;1.00
9323;DHT22;4700;48.822;9.270;2022-10-16T15:39:32;22.20;1.00
9323;DHT22;4700;48.822;9.270;2022-10-16T15:42:18;22.10;1.00
9323;DHT22;4700;48.822;9.270;2022-10-16T15:45:04;22.00;1.00
9323;DHT22;4700;48.822;9.270;2022-10-16T15:47:50;22.00;1.00
9323;DHT22;4700;48.822;9.270;2022-10-16T15:50:38;21.80;1.00
9323;DHT22;4700;48.822;9.270;2022-10-16T15:53:24;21.70;1.00
9323;DHT22;4700;48.822;9.270;2022-10-16T15:56:10;21.60;1.00
9323;DHT22;4700;48.822;9.270;2022-10-16T15:58:56;21.50;1.00
9323;DHT22;4700;48.822;9.270;2022-10-16T16:01:43;21.40;1.00
9323;DHT22;4700;48.822;9.270;2022-10-16T16:04:30;21.30;1.00
9323;DHT22;4700;48.822;9.270;2022-10-16T16:07:17;21.30;1.00
9323;DHT22;4700;48.822;9.270;2022-10-16T16:10:05;21.20;1.00
9323;DHT22;4700;48.822;9.270;2022-10-16T16:12:51;21.10;1.00
9323;DHT22;4700;48.822;9.270;2022-10-16T16:15:40;21.10;1.00
9323;DHT22;4700;48.822;9.270;2022-10-16T16:18:26;21.00;1.00
9323;DHT22;4700;48.822;9.270;2022-10-16T16:21:13;20.90;1.00
9323;DHT22;4700;48.822;9.270;2022-10-16T16:24:00;20.70;1.00
9323;DHT22;4700;48.822;9.270;2022-10-16T16:26:52;20.60;1.00
9323;DHT22;4700;48.822;9.270;2022-10-16T16:29:37;20.50;1.00
9323;DHT22;4700;48.822;9.270;2022-10-16T16:32:23;20.30;1.00
9323;DHT22;4700;48.822;9.270;2022-10-16T16:35:09;20.20;1.00
9323;DHT22;4700;48.822;9.270;2022-10-16T16:37:56;20.00;1.00
9323;DHT22;4700;48.822;9.270;2022-10-16T16:40:43;19.90;1.00
9323;DHT22;4700;48.822;9.270;2022-10-16T16:43:29;19.80;1.00
9323;DHT22;4700;48.822;9.270;2022-10-16T16:46:16;19.80;1.00
9323;DHT22;4700;48.822;9.270;2022-10-16T16:49:03;19.70;1.00
9323;DHT22;4700;48.822;9.270;2022-10-16T16:51:49;19.80;1.00
9323;DHT22;4700;48.822;9.270;2022-10-16T16:54:35;19.70;1.00
9323;DHT22;4700;48.822;9.270;2022-10-16T16:57:23;19.70;1.00
9323;DHT22;4700;48.822;9.270;2022-10-16T17:00:09;19.60;1.00
9323;DHT22;4700;48.822;9.270;2022-10-16T17:02:55;19.60;1.00
9323;DHT22;4700;48.822;9.270;2022-10-16T17:05:41;19.60;1.00
9323;DHT22;4700;48.822;9.270;2022-10-16T17:08:27;19.50;1.00
9323;DHT22;4700;48.822;9.270;2022-10-16T17:11:15;19.50;1.00
9323;DHT22;4700;48.822;9.270;2022-10-16T17:14:03;19.50;1.00
9323;DHT22;4700;48.822;9.270;2022-10-16T17:16:49;19.60;1.00
9323;DHT22;4700;48.822;9.270;2022-10-16T17:19:35;19.60;1.00
9323;DHT22;4700;48.822;9.270;2022-10-16T17:22:21;19.60;1.00
9323;DHT22;4700;48.822;9.270;2022-10-16T17:25:07;19.60;1.00
9323;DHT22;4700;48.822;9.270;2022-10-16T17:27:53;19.50;1.00
9323;DHT22;4700;48.822;9.270;2022-10-16T17:30:41;19.50;1.00
9323;DHT22;4700;48.822;9.270;2022-10-16T17:33:27;19.50;1.00
9323;DHT22;4700;48.822;9.270;2022-10-16T17:36:13;19.40;1.00
9323;DHT22;4700;48.822;9.270;2022-10-16T17:38:59;19.40;1.00
9323;DHT22;4700;48.822;9.270;2022-10-16T17:41:47;19.30;1.00
9323;DHT22;4700;48.822;9.270;2022-10-16T17:44:33;19.20;1.00
9323;DHT22;4700;48.822;9.270;2022-10-16T17:47:20;19.20;1.00
9323;DHT22;4700;48.822;9.270;2022-10-16T17:50:05;19.10;1.00
9323;DHT22;4700;48.822;9.270;2022-10-16T17:52:51;19.00;1.00
9323;DHT22;4700;48.822;9.270;2022-10-16T17:55:37;18.90;1.00
9323;DHT22;4700;48.822;9.270;2022-10-16T17:58:23;18.80;1.00
9323;DHT22;4700;48.822;9.270;2022-10-16T18:01:13;18.80;1.00
9323;DHT22;4700;48.822;9.270;2022-10-16T18:04:02;18.80;1.00
9323;DHT22;4700;48.822;9.270;2022-10-16T18:06:50;18.60;1.00
9323;DHT22;4700;48.822;9.270;2022-10-16T18:09:36;18.50;1.00
9323;DHT22;4700;48.822;9.270;2022-10-16T18:12:22;18.30;1.00
9323;DHT22;4700;48.822;9.270;2022-10-16T18:15:08;18.10;1.00
9323;DHT22;4700;48.822;9.270;2022-10-16T18:17:54;18.10;1.00
9323;DHT22;4700;48.822;9.270;2022-10-16T18:20:43;18.10;1.00
9323;DHT22;4700;48.822;9.270;2022-10-16T18:23:29;18.10;1.00
9323;DHT22;4700;48.822;9.270;2022-10-16T18:26:15;18.00;1.00
9323;DHT22;4700;48.822;9.270;2022-10-16T18:29:01;17.90;1.00
9323;DHT22;4700;48.822;9.270;2022-10-16T18:31:48;17.90;1.00
9323;DHT22;4700;48.822;9.270;2022-10-16T18:34:33;17.80;1.00
9323;DHT22;4700;48.822;9.270;2022-10-16T18:37:22;17.80;1.00
9323;DHT22;4700;48.822;9.270;2022-10-16T18:40:08;17.80;1.00
9323;DHT22;4700;48.822;9.270;2022-10-16T18:42:55;17.80;1.00
9323;DHT22;4700;48.822;9.270;2022-10-16T18:45:40;17.70;1.00